Time;durP1;ratioP1;P1;durP2;ratioP2;P2;SDS_P1;SDS_P2;PMS_P1;PMS_P2;Temp;Humidity;BMP_temperature;BMP_pressure;BME280_temperature;BME280_humidity;BME280_pressure;Samples;Min_cycle;Max_cycle;Signal;HPM_P1;HPM_P2
2022/01/08 00:00:55;;;;;;;15.27;9.50;;;1.50;99.90;;;;;;4956688;28;20081;-55
2022/01/08 00:03:20;;;;;;;18.20;9.82;;;1.40;99.90;;;;;;4961019;28;20054;-56
2022/01/08 00:05:48;;;;;;;24.67;10.43;;;1.40;99.90;;;;;;4953952;28;20043;-58
2022/01/08 00:08:14;;;;;;;22.92;11.15;;;1.40;99.90;;;;;;4965438;28;20542;-54
2022/01/08 00:10:40;;;;;;;20.92;10.15;;;1.40;99.90;;;;;;4969800;28;20039;-57
2022/01/08 00:13:07;;;;;;;18.73;9.57;;;1.40;99.90;;;;;;4967604;28;20487;-56
2022/01/08 00:15:33;;;;;;;20.13;11.57;;;1.30;99.90;;;;;;4971478;28;20118;-55
2022/01/08 00:17:59;;;;;;;25.58;12.13;;;1.30;99.90;;;;;;4971936;28;20038;-55
2022/01/08 00:20:25;;;;;;;20.20;11.25;;;1.30;99.90;;;;;;4972155;28;20043;-57
2022/01/08 00:22:52;;;;;;;24.73;12.23;;;1.30;99.90;;;;;;4953719;28;20039;-56
2022/01/08 00:25:18;;;;;;;29.73;13.93;;;1.30;99.90;;;;;;4953764;28;20503;-53
2022/01/08 00:27:44;;;;;;;22.45;13.15;;;1.20;99.90;;;;;;4953798;28;20042;-56
2022/01/08 00:30:10;;;;;;;22.40;13.05;;;1.20;99.90;;;;;;4969242;28;20393;-56
2022/01/08 00:32:36;;;;;;;27.27;13.52;;;1.20;99.90;;;;;;4972540;28;20038;-56
2022/01/08 00:35:02;;;;;;;22.77;13.93;;;1.10;99.90;;;;;;4972808;28;20045;-57
2022/01/08 00:37:27;;;;;;;27.50;14.57;;;1.10;99.90;;;;;;4955532;28;20054;-57
2022/01/08 00:39:53;;;;;;;26.52;13.52;;;1.10;99.90;;;;;;4972348;28;20039;-57
2022/01/08 00:42:19;;;;;;;21.27;12.68;;;1.10;99.90;;;;;;4972439;28;20034;-56
2022/01/08 00:44:44;;;;;;;22.42;14.27;;;1.10;99.90;;;;;;4956046;28;20074;-56
2022/01/08 00:47:10;;;;;;;28.48;14.93;;;1.10;99.90;;;;;;4965041;28;20043;-53
2022/01/08 00:49:37;;;;;;;21.92;12.90;;;1.00;99.90;;;;;;4954835;28;20043;-52
2022/01/08 00:52:04;;;;;;;31.40;14.93;;;1.00;99.90;;;;;;4960395;28;20077;-55
2022/01/08 00:54:29;;;;;;;24.75;14.20;;;1.00;99.90;;;;;;4972187;28;20061;-55
2022/01/08 00:56:55;;;;;;;27.40;14.30;;;1.00;99.90;;;;;;4961919;28;20123;-55
2022/01/08 00:59:20;;;;;;;30.50;14.98;;;0.90;99.90;;;;;;4964072;28;20042;-53
2022/01/08 01:01:46;;;;;;;25.55;14.52;;;0.90;99.90;;;;;;4962889;28;20039;-57
2022/01/08 01:04:12;;;;;;;30.45;15.55;;;0.90;99.90;;;;;;4955546;28;20043;-56
2022/01/08 01:06:38;;;;;;;29.83;15.18;;;0.90;99.90;;;;;;4950653;28;20078;-56
2022/01/08 01:09:03;;;;;;;30.65;15.25;;;0.90;99.90;;;;;;4963771;28;20039;-56
2022/01/08 01:11:29;;;;;;;29.10;15.02;;;0.80;99.90;;;;;;4966324;28;20038;-55
2022/01/08 01:13:54;;;;;;;28.60;14.82;;;0.80;99.90;;;;;;4971940;28;20151;-57
2022/01/08 01:16:21;;;;;;;24.90;14.13;;;0.80;99.90;;;;;;4972147;28;20087;-56
2022/01/08 01:18:47;;;;;;;28.17;14.43;;;0.80;99.90;;;;;;4968333;28;20039;-56
2022/01/08 01:21:13;;;;;;;26.85;14.05;;;0.80;99.90;;;;;;4952057;28;20522;-57
2022/01/08 01:23:42;;;;;;;22.67;13.63;;;0.90;99.90;;;;;;4952747;28;20304;-58
2022/01/08 01:26:13;;;;;;;24.88;14.23;;;1.00;99.90;;;;;;4970525;28;20082;-57
2022/01/08 01:28:56;;;;;;;26.55;13.50;;;1.00;99.90;;;;;;4971547;28;20057;-55
2022/01/08 01:47:28;;;;;;;18.13;8.07;;;1.20;99.90;;;;;;4974568;28;20101;-58
2022/01/08 01:49:53;;;;;;;14.82;7.40;;;1.20;99.90;;;;;;4969988;28;20047;-57
2022/01/08 01:52:19;;;;;;;23.48;8.05;;;1.20;99.90;;;;;;4968281;28;20053;-56
2022/01/08 01:54:45;;;;;;;17.60;7.57;;;1.20;99.90;;;;;;4971014;28;20044;-55
2022/01/08 01:57:13;;;;;;;15.77;7.72;;;1.50;99.90;;;;;;4963229;28;20079;-55
2022/01/08 01:59:39;;;;;;;19.08;7.78;;;1.20;99.90;;;;;;4967869;28;20035;-56
2022/01/08 02:02:06;;;;;;;16.10;7.45;;;1.20;99.90;;;;;;4956284;28;20558;-55
2022/01/08 02:04:32;;;;;;;18.38;7.57;;;1.20;99.90;;;;;;4955161;28;20043;-56
2022/01/08 02:06:58;;;;;;;16.90;7.80;;;1.10;99.90;;;;;;4975385;28;20149;-57
2022/01/08 02:09:24;;;;;;;20.70;7.07;;;1.10;99.90;;;;;;4974669;28;20166;-57
2022/01/08 02:11:58;;;;;;;19.25;7.03;;;1.10;99.90;;;;;;4967408;28;20035;-54
2022/01/08 02:14:24;;;;;;;21.55;7.78;;;1.10;99.90;;;;;;4950123;28;20516;-58
2022/01/08 02:16:50;;;;;;;19.42;8.32;;;1.10;99.90;;;;;;4970825;28;20035;-56
2022/01/08 02:19:16;;;;;;;18.05;8.50;;;1.10;99.90;;;;;;4955772;28;20487;-56
2022/01/08 02:22:02;;;;;;;20.98;8.13;;;1.10;99.90;;;;;;4953646;29;20514;-56
2022/01/08 02:24:28;;;;;;;23.23;9.13;;;1.10;99.90;;;;;;4955343;29;20055;-58
2022/01/08 02:26:54;;;;;;;23.60;9.65;;;1.00;99.90;;;;;;4939458;29;20119;-56
2022/01/08 02:29:21;;;;;;;18.42;10.18;;;1.10;99.90;;;;;;4936429;29;20142;-57
2022/01/08 02:31:56;;;;;;;22.40;10.93;;;1.10;99.90;;;;;;4951317;29;20043;-55
2022/01/08 02:34:22;;;;;;;23.00;11.57;;;1.00;99.90;;;;;;4953504;29;20047;-55
2022/01/08 02:36:48;;;;;;;28.85;12.95;;;1.00;99.90;;;;;;4945664;29;20067;-55
2022/01/08 02:39:13;;;;;;;23.25;11.88;;;1.00;99.90;;;;;;4955192;29;20094;-56
2022/01/08 02:41:40;;;;;;;26.05;12.10;;;1.00;99.90;;;;;;4952963;29;20031;-56
2022/01/08 02:44:06;;;;;;;24.75;12.35;;;1.10;99.90;;;;;;4938472;29;20123;-58
2022/01/08 02:46:32;;;;;;;28.60;12.73;;;1.00;99.90;;;;;;4940610;29;20051;-56
2022/01/08 02:48:58;;;;;;;25.98;12.35;;;1.00;99.90;;;;;;4955154;29;20502;-57
2022/01/08 02:51:24;;;;;;;30.17;13.15;;;1.00;99.90;;;;;;4952896;29;20058;-56
2022/01/08 02:53:50;;;;;;;28.30;13.23;;;1.00;99.90;;;;;;4935966;29;20043;-57
2022/01/08 02:56:16;;;;;;;29.20;13.60;;;1.00;99.90;;;;;;4953398;29;20039;-55
2022/01/08 02:58:42;;;;;;;24.65;12.75;;;1.00;99.90;;;;;;4954584;29;20051;-56
2022/01/08 03:01:08;;;;;;;31.85;13.52;;;1.00;99.90;;;;;;4940111;29;20058;-57
2022/01/08 03:03:33;;;;;;;28.00;13.75;;;1.00;99.90;;;;;;4945043;29;20414;-56
2022/01/08 03:05:59;;;;;;;28.27;13.10;;;0.90;99.90;;;;;;4936118;29;20047;-55
2022/01/08 03:08:26;;;;;;;27.02;13.10;;;0.90;99.90;;;;;;4936014;29;20047;-58
2022/01/08 03:10:53;;;;;;;25.42;13.32;;;0.90;99.90;;;;;;4946237;29;20058;-57
2022/01/08 03:13:18;;;;;;;27.55;13.57;;;0.80;99.90;;;;;;4937259;29;20047;-55
2022/01/08 03:15:44;;;;;;;33.50;14.13;;;0.80;99.90;;;;;;4944807;29;20463;-57
2022/01/08 03:18:10;;;;;;;29.73;14.00;;;0.80;99.90;;;;;;4931058;29;20086;-55
2022/01/08 03:20:45;;;;;;;31.90;13.52;;;0.80;99.90;;;;;;4954710;28;20472;-57
2022/01/08 03:23:15;;;;;;;29.38;13.98;;;0.80;99.90;;;;;;4962644;28;20128;-57
2022/01/08 03:25:41;;;;;;;28.50;13.98;;;0.70;99.90;;;;;;4962744;28;20078;-57
2022/01/08 03:28:06;;;;;;;36.47;15.20;;;0.70;99.90;;;;;;4969755;28;20038;-58
2022/01/08 03:30:34;;;;;;;28.52;15.38;;;0.70;99.90;;;;;;4963281;28;20042;-57
2022/01/08 03:33:00;;;;;;;33.45;15.23;;;0.80;99.90;;;;;;4958295;28;20114;-54
2022/01/08 03:35:26;;;;;;;29.50;15.73;;;0.70;99.90;;;;;;4954590;28;20451;-53
2022/01/08 03:37:52;;;;;;;32.47;15.93;;;0.70;99.90;;;;;;4969634;28;20049;-57
2022/01/08 03:40:18;;;;;;;37.58;15.90;;;0.80;99.90;;;;;;4967298;28;20130;-55
2022/01/08 03:42:43;;;;;;;32.10;15.40;;;0.80;99.90;;;;;;4963874;28;20089;-56
2022/01/08 03:45:10;;;;;;;31.13;15.93;;;0.80;99.90;;;;;;4971104;28;20041;-57
2022/01/08 03:50:14;;;;;;;23.40;13.02;;;0.80;99.90;;;;;;4972732;28;20039;-56
2022/01/08 03:52:39;;;;;;;25.15;12.70;;;0.80;99.90;;;;;;4966701;28;20050;-55
2022/01/08 03:55:05;;;;;;;28.80;12.60;;;0.80;99.90;;;;;;4955980;28;20051;-55
2022/01/08 03:57:31;;;;;;;26.92;13.20;;;0.90;99.90;;;;;;4968741;28;20050;-57
2022/01/08 03:59:57;;;;;;;28.15;13.15;;;0.90;99.90;;;;;;4970401;28;20128;-55
2022/01/08 04:02:22;;;;;;;24.52;12.57;;;0.90;99.90;;;;;;4954159;28;20035;-56
2022/01/08 04:04:48;;;;;;;26.92;11.63;;;0.90;99.90;;;;;;4953871;28;20081;-53
2022/01/08 04:07:14;;;;;;;25.65;11.52;;;0.90;99.90;;;;;;4954179;28;20050;-56
2022/01/08 04:09:40;;;;;;;23.27;11.02;;;1.00;99.90;;;;;;4953776;28;20895;-53
2022/01/08 04:12:07;;;;;;;22.85;9.45;;;1.00;99.90;;;;;;4959662;28;20400;-54
2022/01/08 04:14:48;;;;;;;20.27;9.07;;;1.00;99.90;;;;;;4973160;28;21273;-54
2022/01/08 04:17:16;;;;;;;21.17;8.80;;;0.90;99.90;;;;;;4953943;28;20487;-55
2022/01/08 04:19:41;;;;;;;17.15;7.43;;;0.90;99.90;;;;;;4954336;28;20050;-57
2022/01/08 04:22:11;;;;;;;16.02;7.15;;;1.00;99.90;;;;;;4959752;28;20502;-57
2022/01/08 04:24:38;;;;;;;18.95;7.55;;;1.00;99.90;;;;;;4973078;28;20043;-56
2022/01/08 04:27:04;;;;;;;19.63;7.60;;;0.90;99.90;;;;;;4972462;28;20042;-57
2022/01/08 04:29:29;;;;;;;17.70;7.10;;;0.90;99.90;;;;;;4935904;28;20373;-55
2022/01/08 04:31:55;;;;;;;15.80;6.88;;;0.90;99.90;;;;;;4954979;28;20458;-57
2022/01/08 04:34:21;;;;;;;18.45;6.72;;;0.90;99.90;;;;;;4953379;28;20137;-55
2022/01/08 04:36:46;;;;;;;22.13;6.93;;;0.80;99.90;;;;;;4953673;28;20501;-57
2022/01/08 04:39:12;;;;;;;17.55;6.22;;;0.80;99.90;;;;;;4953010;28;20031;-55
2022/01/08 04:41:38;;;;;;;18.85;7.57;;;0.80;99.90;;;;;;4953761;28;20042;-56
2022/01/08 04:44:06;;;;;;;18.70;7.53;;;0.80;99.90;;;;;;4953390;28;20122;-53
2022/01/08 04:46:32;;;;;;;17.45;7.63;;;0.70;99.90;;;;;;4970523;28;20046;-57
2022/01/08 04:48:58;;;;;;;19.70;8.00;;;0.80;99.90;;;;;;4958760;28;20039;-56
2022/01/08 04:51:24;;;;;;;21.52;8.02;;;0.70;99.90;;;;;;4952882;28;20505;-56
2022/01/08 04:53:49;;;;;;;18.80;7.75;;;0.70;99.90;;;;;;4962380;28;20134;-56
2022/01/08 04:56:15;;;;;;;22.08;8.52;;;0.70;99.90;;;;;;4972973;28;20085;-56
2022/01/08 04:58:41;;;;;;;19.95;7.60;;;0.70;99.90;;;;;;4960458;28;20041;-57
2022/01/08 05:01:12;;;;;;;18.05;7.85;;;0.60;99.90;;;;;;4953281;28;20035;-56
2022/01/08 05:03:38;;;;;;;19.88;8.23;;;0.60;99.90;;;;;;4953366;28;20043;-53
2022/01/08 05:06:03;;;;;;;16.92;8.45;;;0.60;99.90;;;;;;4966094;28;20548;-56
2022/01/08 05:08:30;;;;;;;17.20;8.23;;;0.60;99.90;;;;;;4968559;28;20047;-58
2022/01/08 05:10:55;;;;;;;16.35;8.38;;;0.50;99.90;;;;;;4959802;28;20035;-56
2022/01/08 05:13:21;;;;;;;18.20;8.20;;;0.50;99.90;;;;;;4965191;28;20046;-55
2022/01/08 05:15:47;;;;;;;20.02;8.43;;;0.50;99.90;;;;;;4956988;28;20031;-57
2022/01/08 05:18:13;;;;;;;21.83;8.80;;;0.40;99.90;;;;;;4973950;28;20505;-56
2022/01/08 05:20:41;;;;;;;22.95;9.45;;;0.40;99.90;;;;;;4958146;28;20059;-57
2022/01/08 05:23:07;;;;;;;18.27;9.30;;;0.40;99.90;;;;;;4961348;28;20043;-54
2022/01/08 05:25:34;;;;;;;18.40;9.07;;;0.40;99.90;;;;;;4973236;28;20035;-57
2022/01/08 05:28:00;;;;;;;20.60;9.07;;;0.40;99.90;;;;;;4957146;28;20490;-58
2022/01/08 05:30:27;;;;;;;23.50;8.90;;;0.40;99.90;;;;;;4969133;28;20070;-57
2022/01/08 05:32:54;;;;;;;18.45;8.63;;;0.40;99.90;;;;;;4976114;28;20086;-57
2022/01/08 05:35:21;;;;;;;19.67;8.48;;;0.40;99.90;;;;;;4974258;28;20046;-57
2022/01/08 05:37:46;;;;;;;20.02;9.55;;;0.30;99.90;;;;;;4963053;28;20039;-53
2022/01/08 05:40:12;;;;;;;25.08;9.10;;;0.40;99.90;;;;;;4956407;28;20086;-57
2022/01/08 05:42:39;;;;;;;19.92;10.27;;;0.40;99.90;;;;;;4971628;28;20039;-57
2022/01/08 05:45:05;;;;;;;27.58;9.65;;;0.30;99.90;;;;;;4973944;28;20045;-56
2022/01/08 05:47:33;;;;;;;21.77;9.63;;;0.30;99.90;;;;;;4968510;28;20141;-56
2022/01/08 05:49:59;;;;;;;29.00;10.18;;;0.30;99.90;;;;;;4969292;28;20070;-56
2022/01/08 05:52:26;;;;;;;21.95;9.88;;;0.30;99.90;;;;;;4962490;28;20120;-57
2022/01/08 05:54:52;;;;;;;21.20;10.10;;;0.30;99.90;;;;;;4965561;28;20550;-57
2022/01/08 05:57:18;;;;;;;27.73;9.75;;;0.30;99.90;;;;;;4970249;28;20035;-56
2022/01/08 05:59:43;;;;;;;28.27;9.85;;;0.30;99.90;;;;;;4965891;28;20097;-55
2022/01/08 06:02:09;;;;;;;22.73;9.38;;;0.30;99.90;;;;;;4971714;28;20093;-56
2022/01/08 06:04:35;;;;;;;18.83;9.40;;;0.30;99.90;;;;;;4958541;28;20058;-59
2022/01/08 06:07:02;;;;;;;20.52;8.13;;;0.30;99.90;;;;;;4971224;28;20130;-57
2022/01/08 06:09:27;;;;;;;21.40;8.43;;;0.20;99.90;;;;;;4975010;28;20043;-56
2022/01/08 06:11:53;;;;;;;19.73;7.35;;;0.20;99.90;;;;;;4975398;28;20061;-55
2022/01/08 06:14:19;;;;;;;21.95;8.07;;;0.20;99.90;;;;;;4973396;28;20102;-56
2022/01/08 06:16:44;;;;;;;17.13;7.38;;;0.20;99.90;;;;;;4971957;28;20526;-56
2022/01/08 06:19:12;;;;;;;18.15;7.05;;;0.20;99.90;;;;;;4962449;28;20771;-57
2022/01/08 06:21:39;;;;;;;23.73;8.05;;;0.20;99.90;;;;;;4974277;28;20051;-57
2022/01/08 06:24:05;;;;;;;19.35;6.68;;;0.20;99.90;;;;;;4960832;28;20082;-56
2022/01/08 06:26:31;;;;;;;17.10;6.32;;;0.10;99.90;;;;;;4958373;28;20090;-53
2022/01/08 06:28:57;;;;;;;18.40;5.75;;;0.10;99.90;;;;;;4974885;28;20078;-55
2022/01/08 06:31:24;;;;;;;14.50;5.38;;;0.10;99.90;;;;;;4965452;28;20125;-55
2022/01/08 06:33:51;;;;;;;18.13;6.00;;;0.10;99.90;;;;;;4969129;28;20318;-57
2022/01/08 06:36:20;;;;;;;18.55;6.20;;;0.10;99.90;;;;;;4957810;28;20086;-57
2022/01/08 06:38:46;;;;;;;18.42;5.55;;;0.10;99.90;;;;;;4966575;28;20475;-58
2022/01/08 06:41:12;;;;;;;16.23;5.78;;;0.00;99.90;;;;;;4955387;28;20093;-56
2022/01/08 06:43:38;;;;;;;17.00;6.03;;;0.00;99.90;;;;;;4973673;28;20126;-57
2022/01/08 06:46:04;;;;;;;21.20;6.10;;;0.00;99.90;;;;;;4965511;28;20122;-55
2022/01/08 06:48:30;;;;;;;25.05;6.75;;;0.10;99.90;;;;;;4958109;28;20039;-57
2022/01/08 06:50:56;;;;;;;18.42;6.30;;;0.10;99.90;;;;;;4966072;28;20039;-58
2022/01/08 06:53:22;;;;;;;15.25;6.22;;;0.10;99.90;;;;;;4941109;28;20042;-57
2022/01/08 06:55:47;;;;;;;17.80;6.30;;;0.10;99.90;;;;;;4970740;28;20040;-56
2022/01/08 06:58:13;;;;;;;23.88;7.03;;;0.10;99.90;;;;;;4968153;28;20380;-57
2022/01/08 07:00:39;;;;;;;20.60;7.45;;;0.10;99.90;;;;;;4970516;28;20047;-55
2022/01/08 07:03:09;;;;;;;18.13;7.05;;;0.10;99.90;;;;;;4969392;28;20051;-56
2022/01/08 07:05:39;;;;;;;18.25;6.45;;;0.10;99.90;;;;;;4970657;28;20046;-56
2022/01/08 07:08:05;;;;;;;20.25;7.10;;;0.10;99.90;;;;;;4965766;28;20042;-57
2022/01/08 07:10:32;;;;;;;19.35;6.63;;;0.10;99.90;;;;;;4960928;28;20139;-56
2022/01/08 07:12:57;;;;;;;18.75;6.95;;;0.00;99.90;;;;;;4960262;28;20039;-57
2022/01/08 07:15:23;;;;;;;15.93;6.72;;;0.00;99.90;;;;;;4959609;28;20105;-57
2022/01/08 07:17:49;;;;;;;17.20;6.53;;;0.00;99.90;;;;;;4964230;28;20406;-57
2022/01/08 07:20:15;;;;;;;20.58;7.15;;;0.00;99.90;;;;;;4961760;28;20126;-55
2022/01/08 07:22:40;;;;;;;18.40;7.68;;;0.00;99.90;;;;;;4962904;28;21594;-55
2022/01/08 07:25:07;;;;;;;21.40;6.88;;;0.00;99.90;;;;;;4962124;28;20400;-57
2022/01/08 07:27:34;;;;;;;21.67;7.13;;;0.00;99.90;;;;;;4956919;28;20035;-56
2022/01/08 07:30:04;;;;;;;20.75;7.35;;;0.00;99.90;;;;;;4956180;28;20041;-56
2022/01/08 07:32:29;;;;;;;18.05;7.43;;;0.00;99.90;;;;;;4959771;28;20522;-57
2022/01/08 07:34:55;;;;;;;19.48;7.57;;;0.00;99.90;;;;;;4961024;28;20035;-57
2022/01/08 07:37:21;;;;;;;17.20;7.43;;;0.00;99.90;;;;;;4961061;28;20105;-57
2022/01/08 07:39:47;;;;;;;23.95;8.18;;;0.00;99.90;;;;;;4963273;28;20034;-58
2022/01/08 07:42:12;;;;;;;23.27;8.18;;;-0.10;99.90;;;;;;4963324;28;20035;-56
2022/01/08 07:44:39;;;;;;;21.70;8.43;;;0.00;99.90;;;;;;4956231;28;20049;-56
2022/01/08 07:47:05;;;;;;;22.70;9.57;;;0.00;99.90;;;;;;4967052;28;20114;-56
2022/01/08 07:49:31;;;;;;;18.88;8.98;;;0.00;99.90;;;;;;4962328;28;20043;-55
2022/01/08 07:51:57;;;;;;;25.50;9.85;;;0.00;99.90;;;;;;4954163;28;20047;-56
2022/01/08 07:54:22;;;;;;;23.67;9.52;;;0.00;99.90;;;;;;4969780;28;20047;-57
2022/01/08 07:56:48;;;;;;;19.80;9.43;;;0.10;99.90;;;;;;4967507;28;20038;-57
2022/01/08 07:59:14;;;;;;;21.75;9.23;;;0.10;99.90;;;;;;4965746;28;20038;-55
2022/01/08 08:01:39;;;;;;;24.60;9.68;;;0.10;99.90;;;;;;4973547;28;20043;-54
2022/01/08 08:04:05;;;;;;;25.13;9.38;;;0.10;99.90;;;;;;4963122;28;20042;-56
2022/01/08 08:06:32;;;;;;;21.55;9.00;;;0.10;99.90;;;;;;4961173;28;20054;-57
2022/01/08 08:08:58;;;;;;;21.92;9.85;;;0.10;99.90;;;;;;4967663;28;20110;-57
2022/01/08 08:11:24;;;;;;;24.52;9.98;;;0.10;99.90;;;;;;4966377;28;20047;-57
2022/01/08 08:13:50;;;;;;;22.17;10.38;;;0.10;99.90;;;;;;4958256;28;20051;-57
2022/01/08 08:16:16;;;;;;;22.55;10.15;;;0.10;99.90;;;;;;4963158;28;20081;-55
2022/01/08 08:18:41;;;;;;;32.78;10.65;;;0.10;99.90;;;;;;4964315;28;20041;-56
2022/01/08 08:21:07;;;;;;;26.83;11.25;;;0.10;99.90;;;;;;4970200;28;20078;-56
2022/01/08 08:23:33;;;;;;;21.50;11.40;;;0.20;99.90;;;;;;4967114;28;20043;-56
2022/01/08 08:25:58;;;;;;;20.58;11.05;;;0.20;99.90;;;;;;4958879;28;20050;-55
2022/01/08 08:28:24;;;;;;;27.27;11.65;;;0.20;99.90;;;;;;4959599;28;20081;-56
2022/01/08 08:30:49;;;;;;;31.35;12.57;;;0.20;99.90;;;;;;4957350;28;20439;-56
2022/01/08 08:33:15;;;;;;;32.17;12.27;;;0.40;99.90;;;;;;4955777;28;20042;-57
2022/01/08 08:35:41;;;;;;;25.50;11.98;;;0.30;99.90;;;;;;4961203;28;20515;-57
2022/01/08 08:38:06;;;;;;;24.42;10.98;;;0.30;99.90;;;;;;4956798;28;20090;-57
2022/01/08 08:40:32;;;;;;;25.90;11.85;;;0.40;99.90;;;;;;4958068;28;20482;-56
2022/01/08 08:42:58;;;;;;;28.35;12.38;;;0.40;99.90;;;;;;4959591;28;20050;-56
2022/01/08 08:45:24;;;;;;;24.98;12.18;;;0.50;99.90;;;;;;4956035;28;20419;-57
2022/01/08 08:47:50;;;;;;;27.10;11.38;;;0.50;99.90;;;;;;4958904;28;20039;-58
2022/01/08 08:50:16;;;;;;;23.85;11.50;;;0.50;99.90;;;;;;4955323;28;20105;-56
2022/01/08 08:52:42;;;;;;;25.45;11.65;;;0.60;99.90;;;;;;4958235;28;20045;-56
2022/01/08 08:55:08;;;;;;;25.58;10.93;;;0.60;99.90;;;;;;4956949;28;20517;-56
2022/01/08 08:57:35;;;;;;;23.33;11.25;;;0.60;99.90;;;;;;4959530;28;20043;-56
2022/01/08 09:00:02;;;;;;;28.27;10.95;;;0.70;99.90;;;;;;4959683;28;20050;-57
2022/01/08 09:02:27;;;;;;;21.88;9.70;;;0.70;99.90;;;;;;4957063;28;20027;-57
2022/01/08 09:04:53;;;;;;;20.20;9.15;;;0.70;99.90;;;;;;4957146;28;20066;-54
2022/01/08 09:07:19;;;;;;;22.05;9.80;;;0.80;99.90;;;;;;4959132;28;20444;-56
2022/01/08 09:09:44;;;;;;;23.85;10.05;;;0.80;99.90;;;;;;4956193;28;20057;-55
2022/01/08 09:12:14;;;;;;;30.85;10.50;;;0.90;99.90;;;;;;4960747;28;20043;-56
2022/01/08 09:14:42;;;;;;;21.13;9.25;;;0.90;99.90;;;;;;4955738;28;20046;-56
2022/01/08 09:17:07;;;;;;;20.90;8.95;;;1.00;99.90;;;;;;4960132;28;20039;-56
2022/01/08 09:19:33;;;;;;;25.33;9.45;;;1.10;99.90;;;;;;4957227;28;20498;-57
2022/01/08 09:22:01;;;;;;;16.55;8.93;;;1.10;99.90;;;;;;4956228;28;20058;-57
2022/01/08 09:24:28;;;;;;;20.60;9.25;;;1.10;99.90;;;;;;4939807;28;20062;-55
2022/01/08 09:26:54;;;;;;;20.80;9.48;;;1.20;99.90;;;;;;4956990;28;20046;-58
2022/01/08 09:29:19;;;;;;;19.95;9.57;;;1.20;99.90;;;;;;4958300;28;20054;-57
2022/01/08 09:31:46;;;;;;;19.45;9.50;;;1.20;99.90;;;;;;4958626;28;20162;-57
2022/01/08 09:34:12;;;;;;;20.75;9.27;;;1.20;99.90;;;;;;4960185;28;20074;-57
2022/01/08 09:36:38;;;;;;;25.20;10.82;;;1.20;99.90;;;;;;4957856;28;20478;-55
2022/01/08 09:39:06;;;;;;;20.52;10.45;;;1.20;99.90;;;;;;4956185;28;20387;-56
2022/01/08 09:41:32;;;;;;;24.50;10.77;;;1.20;99.90;;;;;;4957792;28;20043;-56
2022/01/08 09:43:58;;;;;;;25.27;10.40;;;1.20;99.90;;;;;;4956682;28;20034;-56
2022/01/08 09:46:23;;;;;;;18.27;10.35;;;1.20;99.90;;;;;;4956047;28;20121;-57
2022/01/08 09:48:49;;;;;;;22.83;11.27;;;1.20;99.90;;;;;;4954404;28;20050;-57
2022/01/08 09:51:17;;;;;;;21.20;11.52;;;1.20;99.90;;;;;;4953357;28;20410;-59
2022/01/08 09:53:43;;;;;;;26.80;13.35;;;1.20;99.90;;;;;;4957284;28;20034;-56
2022/01/08 09:56:09;;;;;;;22.48;11.27;;;1.30;99.90;;;;;;4958948;28;20097;-55
2022/01/08 09:58:35;;;;;;;21.25;11.52;;;1.40;99.90;;;;;;4956936;28;20035;-55
2022/01/08 10:01:01;;;;;;;22.00;11.30;;;1.40;99.90;;;;;;4959427;28;20035;-56
2022/01/08 10:03:31;;;;;;;26.88;12.85;;;1.50;99.90;;;;;;4959086;28;20078;-58
2022/01/08 10:05:58;;;;;;;21.92;11.30;;;1.50;99.90;;;;;;4960905;28;20489;-56
2022/01/08 10:08:27;;;;;;;27.02;12.70;;;1.60;99.90;;;;;;4959706;28;20050;-58
2022/01/08 10:11:01;;;;;;;34.65;14.13;;;1.60;99.90;;;;;;4957399;28;20038;-55
2022/01/08 10:13:34;;;;;;;23.92;12.75;;;1.60;99.90;;;;;;4956955;28;20035;-56
2022/01/08 10:18:46;;;;;;;28.33;13.18;;;1.60;99.90;;;;;;4958907;28;20070;-56
2022/01/08 10:21:16;;;;;;;20.92;13.00;;;1.70;99.90;;;;;;4955482;28;20067;-55
2022/01/08 10:23:44;;;;;;;23.65;11.85;;;1.70;99.90;;;;;;4960045;28;20440;-57
2022/01/08 10:26:13;;;;;;;21.92;12.65;;;1.80;99.90;;;;;;4958412;28;20105;-56
2022/01/08 10:28:38;;;;;;;26.45;13.63;;;1.80;99.90;;;;;;4955280;28;20699;-56
2022/01/08 10:31:27;;;;;;;29.00;13.77;;;1.90;99.90;;;;;;4955218;28;20043;-58
2022/01/08 10:34:11;;;;;;;27.30;13.80;;;1.90;99.90;;;;;;4951707;28;20079;-58
2022/01/08 10:36:39;;;;;;;26.75;12.32;;;2.10;99.90;;;;;;4968813;28;20495;-57
2022/01/08 10:39:29;;;;;;;27.40;11.43;;;2.10;99.90;;;;;;4974032;28;20049;-55
2022/01/08 10:41:58;;;;;;;22.40;12.05;;;2.20;99.90;;;;;;4953690;28;20051;-57
2022/01/08 10:44:26;;;;;;;26.58;12.98;;;2.30;99.90;;;;;;4973797;28;20053;-55
2022/01/08 10:46:58;;;;;;;24.88;12.38;;;2.30;99.90;;;;;;4974563;28;20051;-57
2022/01/08 10:49:30;;;;;;;24.50;12.00;;;2.40;99.90;;;;;;4974405;28;20062;-58
2022/01/08 10:52:05;;;;;;;28.60;12.77;;;2.50;99.90;;;;;;4974207;28;20041;-56
2022/01/08 10:54:35;;;;;;;28.85;12.98;;;2.60;99.90;;;;;;4974490;28;20126;-57
2022/01/08 10:57:03;;;;;;;21.92;12.27;;;2.60;99.90;;;;;;4974441;28;20341;-57
2022/01/08 10:59:32;;;;;;;27.13;13.07;;;2.70;99.90;;;;;;4974290;28;20039;-54
2022/01/08 11:02:07;;;;;;;26.08;13.55;;;2.80;99.90;;;;;;4974338;28;20046;-57
2022/01/08 11:04:38;;;;;;;20.67;11.07;;;2.90;99.90;;;;;;4964667;28;20031;-59
2022/01/08 11:07:09;;;;;;;23.15;12.57;;;2.90;99.90;;;;;;4958803;28;20042;-55
2022/01/08 11:09:37;;;;;;;23.92;12.93;;;2.80;99.90;;;;;;4959302;28;20031;-57
2022/01/08 11:12:05;;;;;;;23.05;13.35;;;2.80;99.90;;;;;;4960048;28;20073;-57
2022/01/08 11:17:16;;;;;;;26.25;15.80;;;2.90;99.90;;;;;;4962302;28;20047;-53
2022/01/08 11:19:44;;;;;;;28.83;14.70;;;2.90;99.90;;;;;;4958127;28;20391;-54
2022/01/08 11:22:13;;;;;;;23.88;14.60;;;2.90;99.90;;;;;;4956999;28;20142;-56
2022/01/08 11:24:49;;;;;;;29.02;15.10;;;2.90;99.90;;;;;;4956836;28;20067;-57
2022/01/08 11:27:17;;;;;;;29.40;16.77;;;3.00;99.90;;;;;;4940934;28;20063;-58
2022/01/08 11:29:45;;;;;;;29.98;17.30;;;3.00;99.90;;;;;;4959662;28;20113;-58
2022/01/08 11:32:11;;;;;;;31.25;18.20;;;3.00;99.90;;;;;;4961263;28;20047;-58
2022/01/08 11:34:41;;;;;;;35.30;19.83;;;3.00;99.90;;;;;;4966350;28;20483;-57
2022/01/08 11:37:08;;;;;;;29.77;19.00;;;3.10;99.90;;;;;;4954487;28;20118;-55
2022/01/08 11:39:34;;;;;;;31.75;19.98;;;3.10;99.90;;;;;;4956998;28;20039;-57
2022/01/08 11:42:01;;;;;;;31.67;20.05;;;3.10;99.90;;;;;;4955395;28;20478;-58
2022/01/08 11:44:32;;;;;;;35.95;20.17;;;3.10;99.90;;;;;;4970909;28;20564;-57
2022/01/08 11:46:59;;;;;;;35.15;21.48;;;3.10;99.90;;;;;;4953876;28;20043;-58
2022/01/08 11:49:25;;;;;;;34.72;21.70;;;3.10;99.90;;;;;;4968116;28;20038;-56
2022/01/08 11:52:14;;;;;;;32.65;22.42;;;3.10;99.90;;;;;;4969867;28;20043;-57
2022/01/08 11:54:42;;;;;;;38.53;23.75;;;3.20;99.90;;;;;;4972616;28;20055;-55
2022/01/08 11:57:22;;;;;;;37.90;23.25;;;3.20;99.90;;;;;;4972520;28;20071;-57
2022/01/08 11:59:49;;;;;;;36.92;24.08;;;3.20;99.90;;;;;;4958939;28;20031;-57
2022/01/08 12:02:16;;;;;;;34.92;23.20;;;3.10;99.90;;;;;;4956651;28;20538;-56
2022/01/08 12:04:47;;;;;;;36.65;24.52;;;3.20;99.90;;;;;;4954660;28;20046;-57
2022/01/08 12:07:37;;;;;;;36.80;25.20;;;3.10;99.90;;;;;;4971281;28;20035;-56
2022/01/08 12:10:23;;;;;;;38.13;23.83;;;3.10;99.90;;;;;;4960686;28;20040;-57
2022/01/08 12:12:51;;;;;;;38.30;23.33;;;3.10;99.90;;;;;;4953304;28;20063;-57
2022/01/08 12:15:39;;;;;;;36.78;24.10;;;3.10;99.90;;;;;;4963792;28;20043;-57
2022/01/08 12:18:06;;;;;;;39.10;23.65;;;3.10;99.90;;;;;;4963705;28;20403;-57
2022/01/08 12:20:39;;;;;;;33.38;21.73;;;3.20;99.90;;;;;;4932172;28;1086127;-57
2022/01/08 12:23:35;;;;;;;33.83;22.30;;;3.20;99.90;;;;;;4963380;28;20140;-57
2022/01/08 12:26:28;;;;;;;38.13;23.42;;;3.20;99.90;;;;;;4963380;28;20059;-55
2022/01/08 12:29:00;;;;;;;39.67;20.85;;;3.20;99.90;;;;;;4971348;28;20066;-57
2022/01/08 12:31:39;;;;;;;31.75;21.38;;;3.20;99.90;;;;;;4970308;28;20042;-57
2022/01/08 12:34:27;;;;;;;32.22;19.48;;;3.30;99.90;;;;;;4960097;28;20391;-57
2022/01/08 12:36:57;;;;;;;28.73;17.48;;;3.30;99.90;;;;;;4963220;28;20042;-58
2022/01/08 12:39:29;;;;;;;28.00;17.63;;;3.40;99.90;;;;;;4966727;28;20329;-57
2022/01/08 12:42:20;;;;;;;22.10;16.20;;;3.40;99.90;;;;;;4957276;28;20042;-56
2022/01/08 12:45:07;;;;;;;30.10;16.42;;;3.40;99.90;;;;;;4961128;28;21232;-56
2022/01/08 12:47:56;;;;;;;26.15;14.60;;;3.40;99.90;;;;;;4953467;28;20051;-56
2022/01/08 12:50:30;;;;;;;26.48;15.38;;;3.50;99.90;;;;;;4960378;28;20038;-58
2022/01/08 12:53:08;;;;;;;22.88;12.95;;;3.40;99.90;;;;;;4962567;28;20040;-58
2022/01/08 12:55:54;;;;;;;24.02;12.63;;;3.40;99.90;;;;;;4970772;28;20049;-58
2022/01/08 12:58:23;;;;;;;23.63;13.70;;;3.40;99.90;;;;;;4954872;28;20050;-57
2022/01/08 13:00:56;;;;;;;24.08;13.77;;;3.40;99.90;;;;;;4960443;28;20095;-58
2022/01/08 13:03:32;;;;;;;22.70;12.77;;;3.40;99.90;;;;;;4960475;28;20047;-58
2022/01/08 13:06:19;;;;;;;22.20;12.65;;;3.40;99.90;;;;;;4972013;28;20039;-57
2022/01/08 13:08:47;;;;;;;23.55;13.00;;;3.40;99.90;;;;;;4970379;28;20101;-58